Airfield :
LOGIN :

Register | Disclaimer

   EN    FR    IT 

 










Legend :    VFR   Marginal VFR   IFR   Intensive IFR   Very Intensive IFR
Visi :
Ceiling :
>= 8 km
>= 3000ft
5 to 8 km
1000 to 3000 ft
1500m to 5 km
500 to 1000 ft
800 to 1500m
200 to 500 ft
< 800m
< 200 ft
Symbols :   Thunderstorms  Fog  Heavy snow  Heavy precipitations  Wind > 20 kt
SIGMETs :     Misc.  Thunderstorms  Icing  Turbulence  Mountain Waves  Volcanic Ashes







- Airport Elevation : 0 ft


ENQA - Troll A Platform

CURRENT METAR :
  • 170320Z AUTO 15021KT 0200NDV -RA NCD 07/06 Q1011 W04/S4

EXPIRED METARs :
  • 170250Z AUTO 15019KT 1100NDV -DZ NCD 06/05 Q1012 W04/S4
  • 170220Z AUTO 14016KT 2600NDV BR OVC004/// 06/05 Q1012 W04/S4
  • 170150Z AUTO 15016KT 9999NDV OVC008/// 06/04 Q1013 W04/S4
  • 170120Z AUTO 15015KT 9999NDV OVC018/// 06/04 Q1013 W04/S4
  • 170050Z AUTO 15014KT 9999NDV OVC027/// 06/03 Q1013 W04/S4

TAF N/A
No reported NOTAMs for that airfield.



MET'MAP, your aeronautical weather chart ! - Copyright ORBIFLY December 2007 - Disclaimer

ORBIFLY MET'MAP TEAM :

Programming & Development : Alexandra Zaïnal
Concept & Development : Baudouin d'Aumeries
Co-Development & Prog : Marc-Olivier Méhu
Technical & hardware support : Manuel Goepfert

Contact : metmap@orbifly.com




SOURCES & CREDITS :

   NOAA